createdAt,value
2023-02-19T00:01:33.693Z,99295.69
2023-02-19T00:05:35.287Z,99278.06
2023-02-19T00:09:38.070Z,99279.13
2023-02-19T00:13:41.415Z,99273.44
2023-02-19T00:17:42.847Z,99267.75
2023-02-19T00:21:44.483Z,99269.88
2023-02-19T00:25:47.250Z,99253.63
2023-02-19T00:29:48.684Z,99252.59
2023-02-19T00:33:52.349Z,99242.84
2023-02-19T00:37:53.792Z,99251.88
2023-02-19T00:41:56.553Z,99238.13
2023-02-19T00:45:57.980Z,99242.38
2023-02-19T00:49:59.405Z,99238.94
2023-02-19T00:54:01.184Z,99244.63
2023-02-19T00:58:03.996Z,99232.78
2023-02-19T01:02:05.441Z,99227.44
2023-02-19T01:06:08.805Z,99228.25
2023-02-19T01:10:10.330Z,99217.00
2023-02-19T01:14:13.179Z,99214.03
2023-02-19T01:18:14.638Z,99207.28
2023-02-19T01:22:16.107Z,99196.38
2023-02-19T01:26:20.061Z,99194.81
2023-02-19T01:30:22.895Z,99183.31
2023-02-19T01:34:24.552Z,99167.69
2023-02-19T01:38:26.152Z,99155.09
2023-02-19T01:42:27.590Z,99158.78
2023-02-19T01:46:31.709Z,99151.31
2023-02-19T01:50:38.503Z,99159.38
2023-02-19T01:54:42.709Z,99154.88
2023-02-19T01:58:45.144Z,99146.22
2023-02-19T02:02:52.480Z,99151.06
2023-02-19T02:06:56.296Z,99145.88
2023-02-19T02:10:57.917Z,99136.84
2023-02-19T02:14:59.494Z,99140.38
2023-02-19T02:19:14.417Z,99128.28
2023-02-19T02:23:28.237Z,99126.88
2023-02-19T02:27:44.030Z,99115.38
2023-02-19T02:31:49.813Z,99115.63
2023-02-19T02:35:54.271Z,99107.06
2023-02-19T02:39:58.233Z,99112.19
2023-02-19T02:43:59.703Z,99099.38
2023-02-19T02:48:08.878Z,99095.13
2023-02-19T02:52:10.377Z,99088.13
2023-02-19T02:56:14.056Z,99076.53
2023-02-19T03:00:15.841Z,99070.34
2023-02-19T03:04:27.917Z,99085.38
2023-02-19T03:08:33.989Z,99065.75
2023-02-19T03:12:39.831Z,99071.72
2023-02-19T03:16:43.121Z,99054.13
2023-02-19T03:20:51.624Z,99050.09
2023-02-19T03:24:56.997Z,99041.91
2023-02-19T03:28:59.991Z,99040.22
2023-02-19T03:33:04.350Z,99040.84
2023-02-19T03:37:13.447Z,99042.03
2023-02-19T03:41:23.200Z,99039.31
2023-02-19T03:45:34.968Z,99037.06
2023-02-19T03:49:44.218Z,99026.31
2023-02-19T03:53:54.118Z,99026.19
2023-02-19T03:58:00.949Z,99016.94
2023-02-19T04:02:06.504Z,99006.53
2023-02-19T04:06:13.627Z,99006.53
2023-02-19T04:10:18.675Z,99005.47
2023-02-19T04:14:24.585Z,99000.72
2023-02-19T04:18:31.101Z,98991.13
2023-02-19T04:22:34.484Z,98989.94
2023-02-19T04:26:37.645Z,98986.03
2023-02-19T04:30:39.123Z,98986.38
2023-02-19T04:34:40.918Z,98979.88
2023-02-19T04:38:42.319Z,98979.53
2023-02-19T04:42:45.137Z,98981.66
2023-02-19T04:46:46.654Z,98989.59
2023-02-19T04:50:48.118Z,98990.41
2023-02-19T04:54:49.599Z,98980.59
2023-02-19T04:58:52.387Z,98991.47
2023-02-19T05:02:53.807Z,98984.97
2023-02-19T05:06:55.252Z,98999.31
2023-02-19T05:10:57.855Z,99004.97
2023-02-19T05:15:00.649Z,99010.78
2023-02-19T05:19:02.120Z,99009.13
2023-02-19T05:23:03.561Z,98999.88
2023-02-19T05:27:05.121Z,98995.28
2023-02-19T05:31:09.296Z,99004.50
2023-02-19T05:35:11.006Z,98994.94
2023-02-19T05:39:12.457Z,98998.72
2023-02-19T05:43:14.851Z,98995.03
2023-02-19T05:47:17.642Z,98995.03
2023-02-19T05:51:23.542Z,99005.91
2023-02-19T05:55:24.979Z,99013.25
2023-02-19T05:59:26.926Z,99009.94
2023-02-19T06:03:29.768Z,99014.31
2023-02-19T06:07:31.612Z,99016.06
2023-02-19T06:11:33.119Z,99019.28
2023-02-19T06:15:34.591Z,99033.13
2023-02-19T06:19:37.418Z,99037.75
2023-02-19T06:23:39.724Z,99031.22
2023-02-19T06:27:41.166Z,99049.06
2023-02-19T06:31:42.814Z,99044.84
2023-02-19T06:35:45.679Z,99047.72
2023-02-19T06:39:47.110Z,99052.09
2023-02-19T06:43:48.593Z,99053.16
2023-02-19T06:47:50.049Z,99067.94
2023-02-19T06:51:52.840Z,99062.59
2023-02-19T06:55:58.601Z,99073.72
2023-02-19T07:00:00.024Z,99089.44
2023-02-19T07:04:01.883Z,99093.84
2023-02-19T07:08:05.092Z,99099.28
2023-02-19T07:12:06.918Z,99114.53
2023-02-19T07:16:09.829Z,99122.59
2023-02-19T07:20:12.099Z,99133.03
2023-02-19T07:24:14.951Z,99148.34
2023-02-19T07:28:16.445Z,99162.72
2023-02-19T07:32:18.031Z,99170.84
2023-02-19T07:36:20.916Z,99179.53
2023-02-19T07:40:23.699Z,99200.28
2023-02-19T07:44:25.133Z,99204.75
2023-02-19T07:48:26.578Z,99218.75
2023-02-19T07:52:28.165Z,99230.25
2023-02-19T07:56:31.092Z,99223.41
2023-02-19T08:00:32.520Z,99234.25
2023-02-19T08:04:34.129Z,99241.56
2023-02-19T08:08:35.743Z,99249.06
2023-02-19T08:12:38.521Z,99260.94
2023-02-19T08:16:43.251Z,99263.66
2023-02-19T08:20:45.107Z,99293.88
2023-02-19T08:24:46.588Z,99318.25
2023-02-19T08:28:49.497Z,99320.13
2023-02-19T08:32:50.993Z,99335.72
2023-02-19T08:36:52.417Z,99340.88
2023-02-19T08:40:53.869Z,99342.75
2023-02-19T08:44:56.649Z,99372.94
2023-02-19T08:48:58.114Z,99377.44
2023-02-19T08:52:59.934Z,99407.72
2023-02-19T08:57:01.376Z,99412.28
2023-02-19T09:01:09.058Z,99444.69
2023-02-19T09:05:10.970Z,99445.50
2023-02-19T09:09:12.418Z,99457.94
2023-02-19T09:13:13.840Z,99475.81
2023-02-19T09:17:16.695Z,99485.38
2023-02-19T09:21:18.171Z,99489.78
2023-02-19T09:25:19.582Z,99495.31
2023-02-19T09:29:21.951Z,99500.34
2023-02-19T09:33:24.739Z,99513.59
2023-02-19T09:37:26.916Z,99531.06
2023-02-19T09:41:31.097Z,99545.59
2023-02-19T09:45:34.697Z,99541.13
2023-02-19T09:49:40.502Z,99545.31
2023-02-19T09:53:44.725Z,99558.34
2023-02-19T09:57:47.104Z,99558.28
2023-02-19T10:01:52.257Z,99569.69
2023-02-19T10:05:55.265Z,99576.34
2023-02-19T10:10:00.343Z,99592.72
2023-02-19T10:14:05.704Z,99595.47
2023-02-19T10:18:08.849Z,99608.81
2023-02-19T10:22:13.760Z,99608.59
2023-02-19T10:26:15.325Z,99617.09
2023-02-19T10:30:22.232Z,99619.44
2023-02-19T10:34:23.782Z,99623.81
2023-02-19T10:38:29.433Z,99634.59
2023-02-19T10:42:31.583Z,99642.63
2023-02-19T10:46:36.638Z,99648.50
2023-02-19T10:50:38.289Z,99646.72
2023-02-19T10:54:41.319Z,99653.59
2023-02-19T10:58:44.214Z,99656.72
2023-02-19T11:02:45.999Z,99678.09
2023-02-19T11:06:48.114Z,99684.16
2023-02-19T11:10:51.309Z,99679.53
2023-02-19T11:14:53.021Z,99692.00
2023-02-19T11:18:57.155Z,99701.31
2023-02-19T11:23:03.822Z,99698.16
2023-02-19T11:27:16.810Z,99707.41
2023-02-19T11:31:26.977Z,99707.47
2023-02-19T11:35:29.006Z,99713.78
2023-02-19T11:39:31.170Z,99712.00
2023-02-19T11:43:53.866Z,99716.91
2023-02-19T11:48:14.974Z,99730.75
2023-02-19T11:52:26.392Z,99726.59
2023-02-19T11:56:34.032Z,99734.09
2023-02-19T12:00:45.934Z,99749.94
2023-02-19T12:05:07.073Z,99746.03
2023-02-19T12:09:27.523Z,99756.25
2023-02-19T12:13:35.808Z,99770.94
2023-02-19T12:17:51.057Z,99764.00
2023-02-19T12:22:11.562Z,99773.66
2023-02-19T12:26:21.961Z,99763.75
2023-02-19T12:30:34.008Z,99767.16
2023-02-19T12:34:42.782Z,99770.13
2023-02-19T12:38:48.030Z,99764.09
2023-02-19T12:43:01.274Z,99753.00
2023-02-19T12:47:05.023Z,99770.78
2023-02-19T12:51:13.541Z,99756.44
2023-02-19T12:55:22.081Z,99760.88
2023-02-19T12:59:29.441Z,99758.47
2023-02-19T13:03:38.936Z,99768.03
2023-02-19T13:07:47.916Z,99777.56
2023-02-19T13:11:54.552Z,99780.16
2023-02-19T13:16:02.284Z,99791.94
2023-02-19T13:20:16.050Z,99784.25
2023-02-19T13:24:24.059Z,99787.75
2023-02-19T13:28:41.964Z,99783.44
2023-02-19T13:32:53.583Z,99791.25
2023-02-19T13:36:55.912Z,99799.00
2023-02-19T13:41:00.163Z,99812.28
2023-02-19T13:45:03.650Z,99822.03
2023-02-19T13:49:45.234Z,99829.16
2023-02-19T13:53:57.067Z,99814.53
2023-02-19T13:58:31.793Z,99810.44
2023-02-19T14:02:35.033Z,99811.59
2023-02-19T14:07:26.397Z,99808.06
2023-02-19T14:12:04.675Z,99811.63
2023-02-19T14:16:48.993Z,99827.63
2023-02-19T14:21:07.357Z,99829.09
2023-02-19T14:25:24.182Z,99829.78
2023-02-19T14:29:27.831Z,99833.78
2023-02-19T14:33:32.753Z,99837.56
2023-02-19T14:37:35.672Z,99840.16
2023-02-19T14:41:39.220Z,99840.16
2023-02-19T14:45:43.282Z,99847.69
2023-02-19T14:49:48.149Z,99856.69
2023-02-19T14:53:53.121Z,99853.56
2023-02-19T14:57:58.416Z,99857.78
2023-02-19T15:02:02.980Z,99862.91
2023-02-19T15:06:07.102Z,99876.16
2023-02-19T15:10:13.949Z,99881.38
2023-02-19T15:14:21.033Z,99883.59
2023-02-19T15:18:24.873Z,99874.56
2023-02-19T15:22:27.979Z,99885.69
2023-02-19T15:26:34.744Z,99880.66
2023-02-19T15:30:36.242Z,99890.13
2023-02-19T15:34:37.824Z,99892.22
2023-02-19T15:38:39.396Z,99885.09
2023-02-19T15:42:46.074Z,99891.63
2023-02-19T15:46:48.352Z,99904.72
2023-02-19T15:50:53.645Z,99911.34
2023-02-19T15:54:59.829Z,99907.88
2023-02-19T15:59:07.063Z,99904.41
2023-02-19T16:03:16.623Z,99900.56
2023-02-19T16:07:24.649Z,99916.22
2023-02-19T16:11:28.597Z,99909.97
2023-02-19T16:15:32.473Z,99913.28
2023-02-19T16:19:45.140Z,99904.44
2023-02-19T16:23:49.323Z,99922.22
2023-02-19T16:27:50.869Z,99908.47
2023-02-19T16:31:56.324Z,99919.09
2023-02-19T16:35:58.013Z,99925.19
2023-02-19T16:40:49.059Z,99946.41
2023-02-19T16:44:50.501Z,99962.47
2023-02-19T16:48:54.369Z,99973.66
2023-02-19T16:52:58.135Z,99984.94
2023-02-19T16:56:59.578Z,99999.88
2023-02-19T17:01:01.074Z,100003.31
2023-02-19T17:05:04.124Z,100007.59
2023-02-19T17:09:06.356Z,100020.28
2023-02-19T17:13:08.803Z,100029.50
2023-02-19T17:17:10.892Z,100035.34
2023-02-19T17:21:16.222Z,100032.97
2023-02-19T17:25:17.712Z,100042.34
2023-02-19T17:29:19.273Z,100050.88
2023-02-19T17:33:20.815Z,100051.59
2023-02-19T17:37:23.787Z,100054.34
2023-02-19T17:41:25.824Z,100063.13
2023-02-19T17:45:27.701Z,100075.28
2023-02-19T17:49:29.529Z,100062.81
2023-02-19T17:53:32.504Z,100072.13
2023-02-19T17:57:34.064Z,100076.69
2023-02-19T18:01:35.627Z,100072.44
2023-02-19T18:05:37.189Z,100069.75
2023-02-19T18:09:40.074Z,100076.34
2023-02-19T18:13:41.784Z,100083.44
2023-02-19T18:17:43.287Z,100094.91
2023-02-19T18:21:44.774Z,100088.84
2023-02-19T18:25:47.670Z,100086.13
2023-02-19T18:29:50.253Z,100098.34
2023-02-19T18:33:51.746Z,100093.09
2023-02-19T18:37:54.263Z,100091.28
2023-02-19T18:41:57.158Z,100097.72
2023-02-19T18:45:58.650Z,100111.41
2023-02-19T18:50:00.219Z,100113.28
2023-02-19T18:54:01.719Z,100115.59
2023-02-19T18:58:04.638Z,100118.53
2023-02-19T19:02:06.751Z,100116.03
2023-02-19T19:06:08.219Z,100115.03
2023-02-19T19:10:10.360Z,100112.53
2023-02-19T19:14:14.016Z,100107.31
2023-02-19T19:18:15.536Z,100118.81
2023-02-19T19:22:17.022Z,100128.59
2023-02-19T19:26:18.571Z,100128.94
2023-02-19T19:30:21.632Z,100119.84
2023-02-19T19:34:23.334Z,100115.59
2023-02-19T19:38:25.510Z,100123.38
2023-02-19T19:42:27.068Z,100121.19
2023-02-19T19:46:29.842Z,100121.53
2023-02-19T19:50:31.325Z,100134.34
2023-02-19T19:54:32.795Z,100121.03
2023-02-19T19:58:34.297Z,100122.22
2023-02-19T20:02:37.079Z,100127.97
2023-02-19T20:06:38.522Z,100129.31
2023-02-19T20:10:40.107Z,100130.63
2023-02-19T20:14:44.047Z,100120.88
2023-02-19T20:18:46.834Z,100126.97
2023-02-19T20:22:48.359Z,100124.59
2023-02-19T20:26:50.389Z,100123.38
2023-02-19T20:30:51.855Z,100126.25
2023-02-19T20:34:54.637Z,100117.78
2023-02-19T20:38:56.099Z,100118.78
2023-02-19T20:42:57.561Z,100111.03
2023-02-19T20:46:59.859Z,100116.25
2023-02-19T20:51:03.919Z,100123.34
2023-02-19T20:55:06.168Z,100128.25
2023-02-19T20:59:08.325Z,100142.03
2023-02-19T21:03:09.822Z,100144.63
2023-02-19T21:07:12.675Z,100159.97
2023-02-19T21:11:14.126Z,100167.53
2023-02-19T21:15:15.668Z,100170.41
2023-02-19T21:19:17.162Z,100161.66
2023-02-19T21:23:20.016Z,100165.88
2023-02-19T21:27:21.461Z,100166.03
2023-02-19T21:31:25.377Z,100178.88
2023-02-19T21:35:27.007Z,100180.91
2023-02-19T21:39:29.949Z,100184.44
2023-02-19T21:43:31.823Z,100190.16
2023-02-19T21:47:33.262Z,100190.16
2023-02-19T21:51:37.039Z,100187.97
2023-02-19T21:55:42.938Z,100186.28
2023-02-19T21:59:51.440Z,100177.31
2023-02-19T22:03:53.059Z,100180.53
2023-02-19T22:07:54.512Z,100172.06
2023-02-19T22:11:57.333Z,100177.13
2023-02-19T22:15:58.877Z,100170.22
2023-02-19T22:20:00.370Z,100166.31
2023-02-19T22:24:03.084Z,100149.16
2023-02-19T22:28:06.101Z,100151.88
2023-02-19T22:32:07.718Z,100146.13
2023-02-19T22:36:17.921Z,100148.84
2023-02-19T22:40:19.382Z,100139.06
2023-02-19T22:44:22.205Z,100131.97
2023-02-19T22:48:30.147Z,100141.75
2023-02-19T22:52:31.856Z,100139.88
2023-02-19T22:56:33.419Z,100130.28
2023-02-19T23:00:36.226Z,100130.59
2023-02-19T23:04:37.831Z,100131.59
2023-02-19T23:08:39.319Z,100120.06
2023-02-19T23:12:41.361Z,100102.50
2023-02-19T23:16:44.628Z,100108.88
2023-02-19T23:20:46.094Z,100104.81
2023-02-19T23:24:47.546Z,100099.06
2023-02-19T23:28:48.997Z,100096.38
2023-02-19T23:32:51.832Z,100098.22
2023-02-19T23:36:54.310Z,100089.72
2023-02-19T23:40:55.739Z,100093.09
2023-02-19T23:44:57.172Z,100078.69
2023-02-19T23:48:59.944Z,100075.97
2023-02-19T23:53:02.397Z,100062.28
2023-02-19T23:57:04.027Z,100064.56
